createdAt,value
2023-04-28T00:00:16.583Z,10.77
2023-04-28T00:02:49.061Z,9.40
2023-04-28T00:05:17.824Z,10.27
2023-04-28T00:07:46.567Z,9.70
2023-04-28T00:10:15.123Z,9.87
2023-04-28T00:12:43.635Z,9.63
2023-04-28T00:15:13.472Z,9.20
2023-04-28T00:17:41.966Z,9.67
2023-04-28T00:20:13.599Z,9.93
2023-04-28T00:22:41.952Z,10.60
2023-04-28T00:25:11.488Z,10.17
2023-04-28T00:27:39.922Z,9.77
2023-04-28T00:30:10.449Z,9.60
2023-04-28T00:32:38.814Z,9.90
2023-04-28T00:35:08.788Z,9.93
2023-04-28T00:37:40.016Z,10.17
2023-04-28T00:40:10.163Z,10.00
2023-04-28T00:42:38.785Z,9.20
2023-04-28T00:45:08.329Z,9.57
2023-04-28T00:47:38.638Z,9.13
2023-04-28T00:50:10.487Z,9.50
2023-04-28T00:52:40.689Z,9.97
2023-04-28T00:55:10.761Z,9.90
2023-04-28T00:57:40.417Z,8.93
2023-04-28T01:00:10.198Z,9.30
2023-04-28T01:02:39.116Z,9.37
2023-04-28T01:05:08.218Z,9.73
2023-04-28T01:07:37.245Z,10.00
2023-04-28T01:10:08.886Z,9.63
2023-04-28T01:12:37.550Z,9.60
2023-04-28T01:15:07.480Z,9.00
2023-04-28T01:17:36.031Z,9.97
2023-04-28T01:20:04.900Z,9.07
2023-04-28T01:22:33.427Z,10.67
2023-04-28T01:25:04.149Z,9.80
2023-04-28T01:27:35.455Z,10.57
2023-04-28T01:30:04.106Z,9.43
2023-04-28T01:32:32.492Z,10.23
2023-04-28T01:35:01.542Z,10.33
2023-04-28T01:37:29.981Z,11.00
2023-04-28T01:39:58.434Z,11.03
2023-04-28T01:42:28.239Z,11.33
2023-04-28T01:44:58.790Z,10.57
2023-04-28T01:47:27.931Z,10.63
2023-04-28T01:49:56.408Z,11.67
2023-04-28T01:52:24.884Z,11.53
2023-04-28T01:54:53.330Z,11.63
2023-04-28T01:57:22.502Z,12.83
2023-04-28T01:59:53.622Z,11.53
2023-04-28T02:02:22.576Z,12.30
2023-04-28T02:04:52.041Z,11.23
2023-04-28T02:07:21.255Z,11.50
2023-04-28T02:09:50.153Z,12.10
2023-04-28T02:12:18.731Z,12.23
2023-04-28T02:14:47.152Z,13.17
2023-04-28T02:17:17.008Z,12.53
2023-04-28T02:19:45.529Z,13.07
2023-04-28T02:22:14.192Z,13.13
2023-04-28T02:24:42.704Z,13.77
2023-04-28T02:27:11.069Z,14.20
2023-04-28T02:29:40.275Z,14.07
2023-04-28T02:32:08.737Z,15.03
2023-04-28T02:34:38.967Z,15.47
2023-04-28T02:37:07.549Z,14.63
2023-04-28T02:39:36.053Z,16.10
2023-04-28T02:42:05.511Z,15.20
2023-04-28T02:44:34.115Z,14.93
2023-04-28T02:47:02.714Z,16.97
2023-04-28T02:49:31.267Z,15.70
2023-04-28T02:52:01.065Z,16.23
2023-04-28T02:54:29.637Z,17.43
2023-04-28T02:56:59.126Z,15.87
2023-04-28T02:59:28.267Z,17.53
2023-04-28T03:01:57.227Z,16.53
2023-04-28T03:04:26.162Z,16.73
2023-04-28T03:06:54.943Z,16.93
2023-04-28T03:09:24.896Z,16.73
2023-04-28T03:11:53.282Z,17.07
2023-04-28T03:14:21.884Z,16.10
2023-04-28T03:16:50.852Z,16.17
2023-04-28T03:19:19.692Z,16.37
2023-04-28T03:21:48.156Z,15.60
2023-04-28T03:24:16.871Z,16.27
2023-04-28T03:26:46.794Z,16.93
2023-04-28T03:29:15.178Z,16.20
2023-04-28T03:31:44.548Z,15.70
2023-04-28T03:34:13.539Z,15.73
2023-04-28T03:36:42.028Z,16.60
2023-04-28T03:39:10.386Z,16.03
2023-04-28T03:41:38.711Z,16.77
2023-04-28T03:44:08.591Z,16.03
2023-04-28T03:46:36.972Z,16.27
2023-04-28T03:49:08.039Z,16.17
2023-04-28T03:51:36.497Z,16.47
2023-04-28T03:54:05.363Z,16.63
2023-04-28T03:56:33.908Z,17.20
2023-04-28T03:59:02.242Z,16.07
2023-04-28T04:01:31.995Z,16.47
2023-04-28T04:04:01.385Z,17.37
2023-04-28T04:06:29.963Z,16.93
2023-04-28T04:08:58.767Z,15.97
2023-04-28T04:11:27.607Z,16.33
2023-04-28T04:13:56.165Z,16.13
2023-04-28T04:16:25.117Z,16.47
2023-04-28T04:18:54.962Z,16.07
2023-04-28T04:21:24.900Z,17.63
2023-04-28T04:23:53.586Z,16.27
2023-04-28T04:26:22.479Z,16.77
2023-04-28T04:28:51.058Z,16.37
2023-04-28T04:31:19.942Z,16.40
2023-04-28T04:33:48.428Z,15.57
2023-04-28T04:36:18.412Z,15.87
2023-04-28T04:38:47.153Z,15.77
2023-04-28T04:41:15.745Z,16.07
2023-04-28T04:43:44.069Z,16.13
2023-04-28T04:46:12.447Z,17.40
2023-04-28T04:48:40.789Z,15.40
2023-04-28T04:51:09.205Z,14.93
2023-04-28T04:53:39.055Z,15.57
2023-04-28T04:56:07.954Z,15.93
2023-04-28T04:58:36.562Z,15.07
2023-04-28T05:01:04.935Z,16.37
2023-04-28T05:03:33.438Z,15.73
2023-04-28T05:06:03.009Z,14.70
2023-04-28T05:08:31.438Z,13.87
2023-04-28T05:11:01.191Z,14.63
2023-04-28T05:13:29.521Z,15.17
2023-04-28T05:15:58.088Z,15.63
2023-04-28T05:18:27.237Z,14.70
2023-04-28T05:20:56.047Z,15.67
2023-04-28T05:23:25.185Z,15.07
2023-04-28T05:25:53.928Z,14.60
2023-04-28T05:28:23.705Z,14.87
2023-04-28T05:30:52.382Z,14.80
2023-04-28T05:33:21.154Z,13.83
2023-04-28T05:35:50.182Z,14.33
2023-04-28T05:38:18.823Z,13.77
2023-04-28T05:40:47.181Z,14.47
2023-04-28T05:43:15.533Z,14.77
2023-04-28T05:45:45.308Z,14.50
2023-04-28T05:48:13.734Z,13.63
2023-04-28T05:50:42.336Z,14.00
2023-04-28T05:53:10.857Z,14.27
2023-04-28T05:55:39.422Z,13.80
2023-04-28T05:58:08.138Z,13.97
2023-04-28T06:00:36.961Z,14.30
2023-04-28T06:03:09.062Z,14.93
2023-04-28T06:05:37.740Z,13.87
2023-04-28T06:08:07.903Z,13.40
2023-04-28T06:10:36.306Z,13.17
2023-04-28T06:13:06.424Z,14.00
2023-04-28T06:15:35.023Z,13.10
2023-04-28T06:18:03.559Z,13.70
2023-04-28T06:20:33.295Z,13.13
2023-04-28T06:23:01.713Z,13.67
2023-04-28T06:25:31.427Z,13.47
2023-04-28T06:27:59.872Z,13.77
2023-04-28T06:30:28.222Z,13.03
2023-04-28T06:32:57.887Z,13.37
2023-04-28T06:35:27.271Z,13.17
2023-04-28T06:37:57.699Z,13.77
2023-04-28T06:40:26.096Z,13.33
2023-04-28T06:42:54.722Z,13.50
2023-04-28T06:45:23.415Z,14.23
2023-04-28T06:47:52.733Z,13.97
2023-04-28T06:50:21.432Z,13.87
2023-04-28T06:52:50.061Z,13.33
2023-04-28T06:55:20.105Z,12.87
2023-04-28T06:57:48.529Z,13.20
2023-04-28T07:00:18.299Z,13.70
2023-04-28T07:02:47.029Z,12.87
2023-04-28T07:05:16.692Z,13.23
2023-04-28T07:07:46.634Z,12.60
2023-04-28T07:10:15.827Z,13.03
2023-04-28T07:12:45.803Z,13.23
2023-04-28T07:15:14.162Z,13.57
2023-04-28T07:17:42.574Z,12.97
2023-04-28T07:20:11.883Z,12.97
2023-04-28T07:22:40.489Z,12.27
2023-04-28T07:25:09.821Z,14.40
2023-04-28T07:27:38.593Z,13.10
2023-04-28T07:30:25.645Z,13.37
2023-04-28T07:32:56.340Z,12.70
2023-04-28T07:35:25.105Z,13.80
2023-04-28T07:37:55.222Z,12.93
2023-04-28T07:40:23.981Z,11.83
2023-04-28T07:42:53.202Z,12.40
2023-04-28T07:45:23.321Z,12.47
2023-04-28T07:47:52.444Z,11.17
2023-04-28T07:50:21.129Z,12.17
2023-04-28T07:52:49.746Z,11.77
2023-04-28T07:55:18.419Z,11.87
2023-04-28T07:57:46.749Z,12.30
2023-04-28T08:00:16.629Z,11.93
2023-04-28T08:02:46.568Z,13.60
2023-04-28T08:05:15.383Z,11.73
2023-04-28T08:07:44.029Z,12.10
2023-04-28T08:10:13.313Z,12.27
2023-04-28T08:12:41.981Z,12.00
2023-04-28T08:15:11.744Z,12.27
2023-04-28T08:17:40.759Z,12.07
2023-04-28T08:20:12.022Z,13.07
2023-04-28T08:22:40.546Z,11.77
2023-04-28T08:25:10.897Z,12.03
2023-04-28T08:27:40.108Z,12.30
2023-04-28T08:30:10.210Z,12.80
2023-04-28T08:32:38.744Z,13.37
2023-04-28T08:35:09.026Z,12.43
2023-04-28T08:37:38.907Z,13.50
2023-04-28T08:40:10.890Z,13.90
2023-04-28T08:42:39.696Z,13.00
2023-04-28T08:45:09.770Z,12.47
2023-04-28T08:47:40.770Z,11.83
2023-04-28T08:50:12.609Z,11.83
2023-04-28T08:52:43.597Z,12.13
2023-04-28T08:55:13.870Z,11.20
2023-04-28T08:57:45.709Z,10.93
2023-04-28T09:00:15.237Z,11.37
2023-04-28T09:02:43.928Z,10.67
2023-04-28T09:05:14.685Z,11.53
2023-04-28T09:07:48.911Z,11.70
2023-04-28T09:10:21.336Z,11.30
2023-04-28T09:12:53.320Z,11.67
2023-04-28T09:15:34.182Z,11.30
2023-04-28T09:18:04.463Z,11.23
2023-04-28T09:20:35.747Z,11.43
2023-04-28T09:23:21.412Z,11.17
2023-04-28T09:26:05.401Z,12.20
2023-04-28T09:28:36.800Z,11.90
2023-04-28T09:31:06.047Z,12.33
2023-04-28T09:33:34.647Z,12.30
2023-04-28T09:36:04.549Z,11.90
2023-04-28T09:38:45.318Z,11.53
2023-04-28T09:41:14.110Z,11.30
2023-04-28T09:43:42.744Z,11.23
2023-04-28T09:46:12.102Z,13.13
2023-04-28T09:48:41.443Z,11.93
2023-04-28T09:51:12.390Z,11.03
2023-04-28T09:53:43.054Z,11.40
2023-04-28T09:56:12.082Z,10.87
2023-04-28T09:58:44.695Z,11.77
2023-04-28T10:01:14.301Z,12.37
2023-04-28T10:03:45.486Z,11.20
2023-04-28T10:06:14.876Z,11.17
2023-04-28T10:08:48.281Z,11.43
2023-04-28T10:11:17.575Z,10.80
2023-04-28T10:13:46.221Z,10.87
2023-04-28T10:16:15.962Z,11.77
2023-04-28T10:18:45.041Z,11.67
2023-04-28T10:21:18.300Z,10.87
2023-04-28T10:24:11.353Z,11.13
2023-04-28T10:27:09.770Z,11.80
2023-04-28T10:29:39.469Z,11.53
2023-04-28T10:32:23.624Z,10.43
2023-04-28T10:34:53.333Z,11.17
2023-04-28T10:37:22.597Z,11.00
2023-04-28T10:40:35.789Z,10.47
2023-04-28T10:43:05.160Z,11.07
2023-04-28T10:46:13.031Z,11.47
2023-04-28T10:49:08.331Z,10.97
2023-04-28T10:51:37.715Z,11.67
2023-04-28T10:54:19.961Z,11.40
2023-04-28T10:57:22.910Z,11.33
2023-04-28T10:59:52.829Z,10.30
2023-04-28T11:02:51.412Z,11.40
2023-04-28T11:05:21.861Z,11.10
2023-04-28T11:08:33.274Z,11.57
2023-04-28T11:11:27.452Z,10.73
2023-04-28T11:14:32.931Z,10.57
2023-04-28T11:17:03.743Z,11.13
2023-04-28T11:19:34.369Z,11.07
2023-04-28T11:22:10.028Z,11.07
2023-04-28T11:24:39.191Z,11.67
2023-04-28T11:27:07.758Z,11.73
2023-04-28T11:29:40.242Z,12.40
2023-04-28T11:32:11.272Z,12.30
2023-04-28T11:34:39.979Z,11.50
2023-04-28T11:37:09.368Z,11.70
2023-04-28T11:39:37.877Z,11.90
2023-04-28T11:42:12.131Z,11.80
2023-04-28T11:44:41.974Z,11.17
2023-04-28T11:47:10.382Z,10.63
2023-04-28T11:49:45.871Z,11.37
2023-04-28T11:52:15.038Z,11.30
2023-04-28T11:54:43.921Z,11.10
2023-04-28T11:57:20.455Z,11.23
2023-04-28T11:59:51.154Z,10.90
2023-04-28T12:02:30.063Z,11.40
2023-04-28T12:05:07.554Z,11.20
2023-04-28T12:07:43.945Z,11.03
2023-04-28T12:10:16.099Z,10.90
2023-04-28T12:12:51.872Z,11.33
2023-04-28T12:15:25.084Z,11.53
2023-04-28T12:17:53.616Z,11.43
2023-04-28T12:20:38.957Z,10.80
2023-04-28T12:23:08.589Z,10.70
2023-04-28T12:25:45.657Z,12.30
2023-04-28T12:28:14.273Z,11.30
2023-04-28T12:30:44.180Z,10.30
2023-04-28T12:33:25.202Z,11.13
2023-04-28T12:35:55.249Z,10.67
2023-04-28T12:38:24.120Z,10.83
2023-04-28T12:40:53.279Z,10.67
2023-04-28T12:43:23.451Z,10.57
2023-04-28T12:45:54.531Z,11.20
2023-04-28T12:48:24.000Z,11.90
2023-04-28T12:50:53.062Z,11.00
2023-04-28T12:53:22.236Z,10.90
2023-04-28T12:55:51.200Z,11.20
2023-04-28T12:58:19.967Z,11.40
2023-04-28T13:00:51.240Z,11.93
2023-04-28T13:03:21.727Z,12.13
2023-04-28T13:05:50.352Z,11.73
2023-04-28T13:08:18.731Z,12.17
2023-04-28T13:10:47.195Z,11.83
2023-04-28T13:13:15.523Z,11.73
2023-04-28T13:15:44.271Z,12.10
2023-04-28T13:18:12.666Z,12.20
2023-04-28T13:20:42.658Z,13.23
2023-04-28T13:23:11.139Z,12.57
2023-04-28T13:25:39.582Z,12.97
2023-04-28T13:28:08.088Z,12.57
2023-04-28T13:30:36.908Z,12.17
2023-04-28T13:33:05.529Z,13.03
2023-04-28T13:35:33.934Z,12.87
2023-04-28T13:38:04.587Z,13.57
2023-04-28T13:40:35.660Z,13.10
2023-04-28T13:43:04.156Z,13.33
2023-04-28T13:45:33.069Z,13.10
2023-04-28T13:48:01.515Z,13.60
2023-04-28T13:50:30.092Z,14.13
2023-04-28T13:52:58.741Z,13.90
2023-04-28T13:55:28.815Z,13.47
2023-04-28T13:58:01.636Z,14.90
2023-04-28T14:00:30.122Z,15.70
2023-04-28T14:03:00.144Z,15.83
2023-04-28T14:05:31.535Z,16.40
2023-04-28T14:08:08.819Z,15.57
2023-04-28T14:10:38.702Z,16.37
2023-04-28T14:13:09.022Z,15.97
2023-04-28T14:15:42.460Z,17.07
2023-04-28T14:18:22.154Z,17.37
2023-04-28T14:20:51.309Z,18.10
2023-04-28T14:23:20.649Z,18.47
2023-04-28T14:25:52.082Z,19.17
2023-04-28T14:28:24.298Z,18.27
2023-04-28T14:30:56.270Z,18.60
2023-04-28T14:33:25.418Z,19.03
2023-04-28T14:35:54.011Z,19.10
2023-04-28T14:38:23.820Z,19.30
2023-04-28T14:40:54.246Z,20.03
2023-04-28T14:43:23.884Z,20.03
2023-04-28T14:45:53.006Z,20.50
2023-04-28T14:48:22.256Z,21.40
2023-04-28T14:50:51.507Z,20.73
2023-04-28T14:53:20.009Z,21.53
2023-04-28T14:55:48.562Z,23.00
2023-04-28T14:58:18.474Z,23.10
2023-04-28T15:00:46.801Z,23.80
2023-04-28T15:03:15.607Z,24.43
2023-04-28T15:05:44.130Z,23.53
2023-04-28T15:08:12.902Z,24.77
2023-04-28T15:10:44.052Z,24.27
2023-04-28T15:13:12.867Z,24.57
2023-04-28T15:15:42.719Z,25.83
2023-04-28T15:18:13.133Z,26.50
2023-04-28T15:20:41.743Z,25.30
2023-04-28T15:23:10.866Z,24.57
2023-04-28T15:25:41.524Z,25.93
2023-04-28T15:28:10.396Z,25.73
2023-04-28T15:30:41.167Z,28.20
2023-04-28T15:33:17.159Z,26.13
2023-04-28T15:35:46.453Z,28.53
2023-04-28T15:38:14.958Z,27.93
2023-04-28T15:40:44.422Z,29.87
2023-04-28T15:43:13.526Z,28.10
2023-04-28T15:45:45.129Z,25.43
2023-04-28T15:48:15.438Z,26.53
2023-04-28T15:50:44.270Z,26.73
2023-04-28T15:53:12.784Z,26.67
2023-04-28T15:55:41.296Z,26.60
2023-04-28T15:58:10.971Z,27.53
2023-04-28T16:00:40.652Z,27.17
2023-04-28T16:03:09.694Z,27.20
2023-04-28T16:05:39.895Z,23.97
2023-04-28T16:08:08.300Z,25.47
2023-04-28T16:10:36.879Z,26.20
2023-04-28T16:13:10.799Z,24.83
2023-04-28T16:15:39.976Z,23.50
2023-04-28T16:18:08.521Z,24.23
2023-04-28T16:20:38.667Z,24.67
2023-04-28T16:23:07.601Z,25.60
2023-04-28T16:25:36.553Z,24.87
2023-04-28T16:28:05.130Z,25.10
2023-04-28T16:30:34.740Z,25.00
2023-04-28T16:33:03.681Z,24.90
2023-04-28T16:35:32.962Z,24.20
2023-04-28T16:38:05.671Z,23.03
2023-04-28T16:40:34.109Z,21.57
2023-04-28T16:43:03.296Z,23.27
2023-04-28T16:45:31.881Z,23.57
2023-04-28T16:48:01.871Z,22.50
2023-04-28T16:50:30.473Z,22.17
2023-04-28T16:52:59.151Z,21.53
2023-04-28T16:55:30.347Z,22.97
2023-04-28T16:57:58.817Z,24.13
2023-04-28T17:00:27.998Z,25.73
2023-04-28T17:02:57.027Z,24.00
2023-04-28T17:05:25.768Z,24.47
2023-04-28T17:07:55.185Z,22.83
2023-04-28T17:10:23.828Z,22.83
2023-04-28T17:12:53.785Z,24.37
2023-04-28T17:15:22.716Z,21.30
2023-04-28T17:17:52.058Z,24.23
2023-04-28T17:20:21.639Z,26.17
2023-04-28T17:22:51.072Z,24.47
2023-04-28T17:25:20.323Z,23.57
2023-04-28T17:27:48.780Z,22.10
2023-04-28T17:30:19.035Z,22.03
2023-04-28T17:32:47.700Z,22.43
2023-04-28T17:35:16.478Z,23.23
2023-04-28T17:37:45.158Z,23.60
2023-04-28T17:40:14.888Z,22.87
2023-04-28T17:42:44.045Z,23.37
2023-04-28T17:45:13.296Z,24.40
2023-04-28T17:47:43.081Z,25.53
2023-04-28T17:50:12.232Z,24.17
2023-04-28T17:52:43.381Z,24.87
2023-04-28T17:55:15.603Z,23.80
2023-04-28T17:57:44.050Z,25.43
2023-04-28T18:00:14.676Z,24.03
2023-04-28T18:02:44.710Z,26.63
2023-04-28T18:05:13.557Z,26.47
2023-04-28T18:07:41.982Z,23.60
2023-04-28T18:10:11.183Z,24.37
2023-04-28T18:12:39.858Z,25.70
2023-04-28T18:15:09.666Z,27.37
2023-04-28T18:17:38.269Z,25.87
2023-04-28T18:20:10.554Z,28.10
2023-04-28T18:22:39.196Z,28.07
2023-04-28T18:25:08.536Z,28.13
2023-04-28T18:27:37.455Z,29.83
2023-04-28T18:30:07.080Z,27.33
2023-04-28T18:32:36.025Z,29.20
2023-04-28T18:35:04.844Z,32.30
2023-04-28T18:37:34.696Z,30.97
2023-04-28T18:40:03.998Z,31.40
2023-04-28T18:42:33.117Z,31.13
2023-04-28T18:45:01.925Z,34.17
2023-04-28T18:47:30.988Z,34.03
2023-04-28T18:50:01.006Z,35.87
2023-04-28T18:52:30.095Z,35.67
2023-04-28T18:54:59.862Z,38.17
2023-04-28T18:57:28.842Z,38.80
2023-04-28T19:00:00.789Z,39.23
2023-04-28T19:02:29.681Z,39.77
2023-04-28T19:04:58.826Z,37.23
2023-04-28T19:07:28.320Z,42.17
2023-04-28T19:09:56.694Z,42.93
2023-04-28T19:12:26.821Z,41.43
2023-04-28T19:14:55.838Z,40.60
2023-04-28T19:17:25.002Z,42.07
2023-04-28T19:19:57.482Z,42.00
2023-04-28T19:22:34.765Z,45.00
2023-04-28T19:25:04.239Z,40.03
2023-04-28T19:27:37.094Z,40.90
2023-04-28T19:30:07.867Z,39.67
2023-04-28T19:32:36.832Z,39.20
2023-04-28T19:35:05.891Z,37.73
2023-04-28T19:37:35.130Z,36.23
2023-04-28T19:40:05.903Z,39.27
2023-04-28T19:42:36.003Z,39.60
2023-04-28T19:45:04.672Z,40.67
2023-04-28T19:47:34.231Z,42.23
2023-04-28T19:50:02.826Z,42.70
2023-04-28T19:52:31.416Z,42.93
2023-04-28T19:55:00.697Z,45.53
2023-04-28T19:57:30.351Z,44.83
2023-04-28T20:00:00.129Z,44.17
2023-04-28T20:02:29.028Z,44.63
2023-04-28T20:04:57.983Z,45.60
2023-04-28T20:07:26.624Z,45.17
2023-04-28T20:09:56.428Z,46.23
2023-04-28T20:12:25.489Z,44.60
2023-04-28T20:14:54.381Z,44.47
2023-04-28T20:17:24.446Z,43.00
2023-04-28T20:19:53.622Z,43.93
2023-04-28T20:22:22.610Z,43.63
2023-04-28T20:24:51.417Z,44.77
2023-04-28T20:27:21.985Z,42.17
2023-04-28T20:29:50.714Z,43.67
2023-04-28T20:32:19.654Z,42.50
2023-04-28T20:34:49.447Z,43.17
2023-04-28T20:37:17.893Z,43.57
2023-04-28T20:39:47.131Z,44.83
2023-04-28T20:42:15.685Z,45.33
2023-04-28T20:44:44.495Z,44.10
2023-04-28T20:47:13.045Z,44.77
2023-04-28T20:49:42.557Z,44.37
2023-04-28T20:52:12.288Z,45.40
2023-04-28T20:54:43.629Z,43.47
2023-04-28T20:57:12.138Z,45.30
2023-04-28T20:59:40.624Z,44.57
2023-04-28T21:02:09.173Z,45.30
2023-04-28T21:04:37.562Z,44.90
2023-04-28T21:07:06.045Z,44.50
2023-04-28T21:09:37.498Z,44.67
2023-04-28T21:12:06.697Z,45.67
2023-04-28T21:14:36.841Z,46.87
2023-04-28T21:17:07.107Z,46.83
2023-04-28T21:19:36.102Z,47.93
2023-04-28T21:22:04.431Z,45.83
2023-04-28T21:24:32.882Z,47.63
2023-04-28T21:27:05.421Z,46.37
2023-04-28T21:29:34.578Z,45.80
2023-04-28T21:32:03.113Z,46.60
2023-04-28T21:34:32.972Z,46.10
2023-04-28T21:37:02.185Z,47.13
2023-04-28T21:39:30.590Z,46.30
2023-04-28T21:41:59.027Z,45.57
2023-04-28T21:44:29.087Z,45.43
2023-04-28T21:46:57.867Z,45.07
2023-04-28T21:49:27.232Z,46.97
2023-04-28T21:51:55.686Z,46.30
2023-04-28T21:54:24.438Z,44.93
2023-04-28T21:56:53.052Z,43.73
2023-04-28T21:59:22.018Z,46.30
2023-04-28T22:01:53.098Z,46.33
2023-04-28T22:04:21.886Z,45.67
2023-04-28T22:06:50.754Z,44.57
2023-04-28T22:09:19.269Z,42.67
2023-04-28T22:11:47.673Z,42.47
2023-04-28T22:14:34.961Z,44.47
2023-04-28T22:17:06.245Z,43.40
2023-04-28T22:19:34.617Z,45.07
2023-04-28T22:22:03.203Z,43.20
2023-04-28T22:24:31.680Z,44.17
2023-04-28T22:27:00.209Z,45.30
2023-04-28T22:29:29.507Z,45.40
2023-04-28T22:31:58.754Z,43.97
2023-04-28T22:34:28.493Z,45.87
2023-04-28T22:36:57.035Z,45.37
2023-04-28T22:39:26.947Z,43.40
2023-04-28T22:41:55.825Z,45.97
2023-04-28T22:44:24.572Z,43.03
2023-04-28T22:46:53.414Z,43.67
2023-04-28T22:49:25.744Z,41.63
2023-04-28T22:51:55.649Z,39.97
2023-04-28T22:54:24.224Z,40.77
2023-04-28T22:56:53.388Z,39.00
2023-04-28T22:59:22.212Z,41.50
2023-04-28T23:01:51.703Z,41.27
2023-04-28T23:04:20.603Z,40.23
2023-04-28T23:06:49.278Z,40.97
2023-04-28T23:09:19.705Z,41.03
2023-04-28T23:11:48.247Z,44.17
2023-04-28T23:14:16.641Z,40.97
2023-04-28T23:16:45.052Z,40.90
2023-04-28T23:19:13.470Z,42.40
2023-04-28T23:21:42.068Z,42.33
2023-04-28T23:24:11.538Z,42.60
2023-04-28T23:26:41.629Z,42.80
2023-04-28T23:29:11.253Z,42.87
2023-04-28T23:31:40.072Z,40.80
2023-04-28T23:34:08.802Z,43.37
2023-04-28T23:36:38.062Z,41.77
2023-04-28T23:39:07.134Z,41.73
2023-04-28T23:41:35.806Z,40.50
2023-04-28T23:44:06.173Z,39.83
2023-04-28T23:46:35.037Z,42.27
2023-04-28T23:49:03.932Z,41.10
2023-04-28T23:51:33.003Z,40.20
2023-04-28T23:54:02.603Z,40.23
2023-04-28T23:56:31.404Z,39.53
2023-04-28T23:59:01.011Z,39.37
